Time;durP1;ratioP1;P1;durP2;ratioP2;P2;SDS_P1;SDS_P2;PMS_P1;PMS_P2;Temp;Humidity;BMP_temperature;BMP_pressure;BME280_temperature;BME280_humidity;BME280_pressure;Samples;Min_cycle;Max_cycle;Signal;HPM_P1;HPM_P2
2022/11/22 00:01:45;;;;;;;27.70;6.97;;;;;;;;;;5044728;28;20038;-80
2022/11/22 00:04:13;;;;;;;22.65;7.03;;;;;;;;;;5056833;28;20183;-80
2022/11/22 00:06:47;;;;;;;17.63;6.68;;;;;;;;;;5049002;28;20708;-79
2022/11/22 00:09:14;;;;;;;15.60;6.60;;;;;;;;;;5047670;28;20042;-80
2022/11/22 00:11:41;;;;;;;20.67;7.32;;;;;;;;;;5053350;28;20056;-80
2022/11/22 00:14:08;;;;;;;30.73;7.63;;;;;;;;;;5049521;28;20057;-80
2022/11/22 00:16:37;;;;;;;18.08;7.15;;;;;;;;;;5050446;28;20084;-80
2022/11/22 00:19:05;;;;;;;20.40;6.90;;;;;;;;;;5049544;28;20053;-80
2022/11/22 00:21:32;;;;;;;18.98;7.40;;;;;;;;;;5043623;28;20049;-79
2022/11/22 00:23:59;;;;;;;25.08;7.20;;;;;;;;;;5052662;28;20100;-80
2022/11/22 00:26:26;;;;;;;20.40;7.25;;;;;;;;;;5047609;28;20053;-80
2022/11/22 00:28:56;;;;;;;19.55;6.72;;;;;;;;;;5054422;28;20056;-80
2022/11/22 00:31:23;;;;;;;17.63;6.97;;;;;;;;;;5050709;28;20133;-79
2022/11/22 00:33:50;;;;;;;11.30;6.47;;;;;;;;;;5048760;28;20076;-79
2022/11/22 00:36:17;;;;;;;18.05;6.68;;;;;;;;;;5048869;28;20061;-80
2022/11/22 00:38:44;;;;;;;23.77;7.32;;;;;;;;;;5054495;28;20049;-80
2022/11/22 00:41:12;;;;;;;21.10;7.10;;;;;;;;;;5048756;28;20061;-80
2022/11/22 00:43:39;;;;;;;25.50;7.50;;;;;;;;;;5049520;28;20148;-80
2022/11/22 00:46:12;;;;;;;21.27;7.05;;;;;;;;;;5046811;28;20084;-79
2022/11/22 00:48:42;;;;;;;20.77;6.97;;;;;;;;;;5051169;28;20063;-80
2022/11/22 00:51:12;;;;;;;25.00;6.85;;;;;;;;;;5047710;28;20049;-80
2022/11/22 00:53:42;;;;;;;22.80;7.47;;;;;;;;;;5051289;28;20050;-79
2022/11/22 00:56:12;;;;;;;16.42;6.80;;;;;;;;;;5047492;28;20064;-80
2022/11/22 00:58:39;;;;;;;21.42;7.90;;;;;;;;;;5054783;28;20542;-80
2022/11/22 01:01:06;;;;;;;21.40;6.65;;;;;;;;;;5054122;28;20083;-80
2022/11/22 01:03:34;;;;;;;24.67;6.75;;;;;;;;;;5046737;28;20404;-79
2022/11/22 01:06:01;;;;;;;21.70;6.75;;;;;;;;;;5063378;28;20057;-80
2022/11/22 01:08:28;;;;;;;18.25;7.30;;;;;;;;;;5050326;28;20511;-80
2022/11/22 01:10:56;;;;;;;17.85;6.30;;;;;;;;;;5047883;28;20045;-80
2022/11/22 01:13:24;;;;;;;30.10;7.43;;;;;;;;;;5049868;28;20058;-80
2022/11/22 01:15:51;;;;;;;25.48;7.22;;;;;;;;;;5056823;28;20045;-80
2022/11/22 01:18:18;;;;;;;27.48;7.05;;;;;;;;;;5056579;28;20134;-80
2022/11/22 01:20:45;;;;;;;23.98;6.85;;;;;;;;;;5046220;28;20049;-80
2022/11/22 01:23:12;;;;;;;27.05;7.50;;;;;;;;;;5043922;28;20470;-80
2022/11/22 01:25:42;;;;;;;17.65;6.82;;;;;;;;;;5047780;28;20494;-80
2022/11/22 01:28:12;;;;;;;21.95;7.47;;;;;;;;;;5047245;28;20107;-80
2022/11/22 01:30:40;;;;;;;13.98;7.32;;;;;;;;;;5052763;28;20057;-80
2022/11/22 01:33:07;;;;;;;21.00;5.93;;;;;;;;;;5051864;28;20069;-81
2022/11/22 01:35:37;;;;;;;17.42;6.65;;;;;;;;;;5060668;28;20053;-80
2022/11/22 01:38:05;;;;;;;22.80;6.88;;;;;;;;;;5049770;28;20049;-80
2022/11/22 01:40:37;;;;;;;20.95;6.85;;;;;;;;;;5046494;28;20061;-80
2022/11/22 01:43:13;;;;;;;24.83;7.43;;;;;;;;;;5049027;28;20057;-80
2022/11/22 01:45:42;;;;;;;22.70;6.55;;;;;;;;;;5051412;28;20076;-80
2022/11/22 01:48:09;;;;;;;23.67;6.30;;;;;;;;;;5049807;28;20060;-79
2022/11/22 01:50:38;;;;;;;25.13;6.63;;;;;;;;;;5043518;28;20144;-79
2022/11/22 01:53:08;;;;;;;27.15;6.47;;;;;;;;;;5045730;28;20623;-80
2022/11/22 01:55:36;;;;;;;20.50;6.40;;;;;;;;;;5044641;28;20045;-80
2022/11/22 01:58:03;;;;;;;21.90;6.53;;;;;;;;;;5051162;28;20045;-81
2022/11/22 02:00:30;;;;;;;17.15;6.43;;;;;;;;;;5066850;28;20061;-79
2022/11/22 02:03:00;;;;;;;25.20;8.02;;;;;;;;;;5047911;28;20049;-80
2022/11/22 02:05:30;;;;;;;22.88;7.05;;;;;;;;;;5051590;28;20100;-79
2022/11/22 02:08:16;;;;;;;23.98;7.50;;;;;;;;;;5042848;28;20057;-80
2022/11/22 02:10:46;;;;;;;31.98;6.85;;;;;;;;;;5052087;28;20049;-79
2022/11/22 02:13:14;;;;;;;31.23;6.93;;;;;;;;;;5046678;28;20053;-79
2022/11/22 02:15:42;;;;;;;19.02;7.07;;;;;;;;;;5051188;28;20049;-80
2022/11/22 02:18:13;;;;;;;22.02;6.63;;;;;;;;;;5064116;28;20057;-79
2022/11/22 02:20:43;;;;;;;26.17;6.00;;;;;;;;;;5049033;28;20049;-80
2022/11/22 02:23:13;;;;;;;23.58;6.85;;;;;;;;;;5050289;28;20538;-79
2022/11/22 02:25:49;;;;;;;20.30;5.93;;;;;;;;;;5041196;28;20188;-80
2022/11/22 02:28:16;;;;;;;26.90;6.20;;;;;;;;;;5049230;28;20106;-79
2022/11/22 02:30:44;;;;;;;18.67;5.70;;;;;;;;;;5048964;28;20144;-80
2022/11/22 02:33:11;;;;;;;19.05;5.25;;;;;;;;;;5046730;28;20341;-80
2022/11/22 02:35:40;;;;;;;17.08;5.47;;;;;;;;;;5048990;28;20101;-80
2022/11/22 02:38:07;;;;;;;15.82;5.80;;;;;;;;;;5051090;28;20049;-80
2022/11/22 02:40:40;;;;;;;15.10;5.03;;;;;;;;;;5046753;28;20057;-80
2022/11/22 02:43:33;;;;;;;24.33;5.07;;;;;;;;;;5049719;28;20045;-80
2022/11/22 02:46:07;;;;;;;16.65;4.18;;;;;;;;;;5048552;28;20852;-79
2022/11/22 02:48:43;;;;;;;26.25;4.63;;;;;;;;;;5051110;28;20486;-80
2022/11/22 02:51:15;;;;;;;14.95;3.70;;;;;;;;;;5054588;28;20049;-80
2022/11/22 02:53:43;;;;;;;27.08;4.45;;;;;;;;;;5050513;28;20507;-79
2022/11/22 02:56:10;;;;;;;20.45;4.18;;;;;;;;;;5051613;28;20074;-80
2022/11/22 02:58:39;;;;;;;15.93;4.13;;;;;;;;;;5052770;28;20598;-80
2022/11/22 03:01:06;;;;;;;27.90;4.35;;;;;;;;;;5051449;28;20145;-80
2022/11/22 03:03:33;;;;;;;25.08;4.63;;;;;;;;;;5048658;28;20878;-80
2022/11/22 03:06:01;;;;;;;19.45;4.40;;;;;;;;;;5053529;28;20056;-80
2022/11/22 03:08:28;;;;;;;21.08;3.72;;;;;;;;;;5053522;28;20140;-80
2022/11/22 03:11:01;;;;;;;20.70;4.13;;;;;;;;;;5054953;28;20876;-80
2022/11/22 03:13:29;;;;;;;19.73;3.42;;;;;;;;;;5048973;28;20144;-80
2022/11/22 03:15:56;;;;;;;24.38;3.50;;;;;;;;;;5053405;28;20493;-80
2022/11/22 03:18:23;;;;;;;19.30;3.45;;;;;;;;;;5057971;28;20093;-80
2022/11/22 03:20:50;;;;;;;28.70;3.13;;;;;;;;;;5054089;28;20132;-80
2022/11/22 03:23:18;;;;;;;26.88;3.63;;;;;;;;;;5049871;28;20057;-80
2022/11/22 03:25:45;;;;;;;25.27;3.78;;;;;;;;;;5049871;28;20065;-80
2022/11/22 03:28:12;;;;;;;19.25;3.08;;;;;;;;;;5059716;28;20052;-79
2022/11/22 03:30:40;;;;;;;26.52;3.22;;;;;;;;;;5050813;28;20053;-80
2022/11/22 03:33:10;;;;;;;16.25;3.10;;;;;;;;;;5057592;28;21515;-80
2022/11/22 03:35:37;;;;;;;20.08;2.35;;;;;;;;;;5055957;28;20046;-80
2022/11/22 03:38:05;;;;;;;18.58;3.00;;;;;;;;;;5053515;28;20045;-80
2022/11/22 03:40:33;;;;;;;24.80;3.42;;;;;;;;;;5049257;28;20053;-80
2022/11/22 03:43:00;;;;;;;36.33;3.75;;;;;;;;;;5047781;28;20161;-80
2022/11/22 03:45:29;;;;;;;24.48;3.10;;;;;;;;;;5050575;28;20050;-80
2022/11/22 03:47:56;;;;;;;24.35;3.25;;;;;;;;;;5045739;28;20049;-80
2022/11/22 03:50:24;;;;;;;26.73;2.80;;;;;;;;;;5051323;28;20057;-80
2022/11/22 03:52:51;;;;;;;14.60;2.53;;;;;;;;;;5052174;28;20057;-80
2022/11/22 03:55:18;;;;;;;23.27;3.17;;;;;;;;;;5051762;28;20539;-79
2022/11/22 03:57:45;;;;;;;27.50;3.15;;;;;;;;;;5050600;28;20116;-80
2022/11/22 04:00:12;;;;;;;24.50;3.00;;;;;;;;;;5051551;28;20034;-80
2022/11/22 04:02:39;;;;;;;25.15;2.47;;;;;;;;;;5046230;28;20814;-80
2022/11/22 04:05:07;;;;;;;15.75;3.00;;;;;;;;;;5043880;28;20455;-80
2022/11/22 04:07:36;;;;;;;24.42;2.70;;;;;;;;;;5051167;28;20379;-79
2022/11/22 04:10:04;;;;;;;21.77;2.88;;;;;;;;;;5051575;28;20716;-80
2022/11/22 04:12:31;;;;;;;15.25;2.30;;;;;;;;;;5044511;28;20972;-80
2022/11/22 04:15:07;;;;;;;23.92;2.08;;;;;;;;;;5050675;28;20640;-79
2022/11/22 04:17:43;;;;;;;25.92;2.50;;;;;;;;;;5048487;28;20045;-80
2022/11/22 04:22:57;;;;;;;21.88;2.28;;;;;;;;;;5040767;28;44410;-79
2022/11/22 04:25:25;;;;;;;13.73;2.38;;;;;;;;;;5048090;28;20053;-80
2022/11/22 04:27:52;;;;;;;19.17;2.72;;;;;;;;;;5048147;28;20052;-79
2022/11/22 04:30:20;;;;;;;22.95;2.80;;;;;;;;;;5047873;28;20129;-79
2022/11/22 04:32:47;;;;;;;16.40;2.25;;;;;;;;;;5049347;28;20054;-80
2022/11/22 04:35:15;;;;;;;15.88;3.28;;;;;;;;;;5063644;28;20511;-79
2022/11/22 04:37:42;;;;;;;18.65;2.33;;;;;;;;;;5067708;28;20052;-79
2022/11/22 04:40:10;;;;;;;19.30;2.60;;;;;;;;;;5052501;28;20049;-80
2022/11/22 04:45:23;;;;;;;21.48;2.85;;;;;;;;;;5053993;28;20088;-79
2022/11/22 04:47:59;;;;;;;22.23;2.60;;;;;;;;;;5071049;28;20049;-79
2022/11/22 04:53:19;;;;;;;30.20;2.27;;;;;;;;;;5045314;28;20049;-80
2022/11/22 04:55:46;;;;;;;24.83;2.47;;;;;;;;;;5048583;28;20143;-81
2022/11/22 04:58:23;;;;;;;16.45;3.03;;;;;;;;;;5048372;28;20057;-80
2022/11/22 05:00:50;;;;;;;15.43;2.30;;;;;;;;;;5049940;28;20515;-80
2022/11/22 05:03:17;;;;;;;15.60;2.60;;;;;;;;;;5050640;28;20045;-79
2022/11/22 05:05:44;;;;;;;20.85;2.67;;;;;;;;;;5048406;28;20629;-80
2022/11/22 05:08:12;;;;;;;20.60;2.65;;;;;;;;;;5046762;28;20111;-80
2022/11/22 05:10:55;;;;;;;14.02;2.10;;;;;;;;;;5049099;28;20054;-80
2022/11/22 05:13:30;;;;;;;21.43;2.47;;;;;;;;;;5043825;28;20050;-80
2022/11/22 05:15:58;;;;;;;32.03;2.45;;;;;;;;;;5046336;28;21958;-79
2022/11/22 05:18:26;;;;;;;17.23;2.90;;;;;;;;;;5046816;28;20096;-80
2022/11/22 05:20:53;;;;;;;22.08;3.13;;;;;;;;;;5051447;28;20046;-80
2022/11/22 05:26:12;;;;;;;16.95;1.92;;;;;;;;;;5042103;28;20049;-80
2022/11/22 05:28:39;;;;;;;20.55;2.40;;;;;;;;;;5062583;28;20048;-80
2022/11/22 05:31:07;;;;;;;31.60;3.33;;;;;;;;;;5050437;28;20056;-80
2022/11/22 05:33:45;;;;;;;18.45;2.05;;;;;;;;;;5055621;28;20085;-80
2022/11/22 05:36:12;;;;;;;28.67;2.75;;;;;;;;;;5050059;28;20053;-80
2022/11/22 05:38:39;;;;;;;15.75;2.35;;;;;;;;;;5047199;28;20054;-80
2022/11/22 05:41:11;;;;;;;8.55;2.13;;;;;;;;;;5055678;28;20183;-80
2022/11/22 05:43:39;;;;;;;16.90;2.50;;;;;;;;;;5052357;28;20764;-80
2022/11/22 05:46:12;;;;;;;14.60;2.00;;;;;;;;;;5051027;28;20832;-80
2022/11/22 05:49:00;;;;;;;15.95;2.42;;;;;;;;;;5053581;28;20919;-80
2022/11/22 05:51:31;;;;;;;23.27;2.70;;;;;;;;;;5045993;28;20513;-80
2022/11/22 05:54:01;;;;;;;16.55;2.30;;;;;;;;;;5054235;28;20490;-80
2022/11/22 05:56:28;;;;;;;18.15;2.25;;;;;;;;;;5053514;28;20068;-79
2022/11/22 05:58:56;;;;;;;14.95;2.28;;;;;;;;;;5046630;28;20054;-79
2022/11/22 06:01:23;;;;;;;18.65;2.83;;;;;;;;;;5049192;28;20062;-80
2022/11/22 06:03:51;;;;;;;26.10;2.65;;;;;;;;;;5049249;28;20053;-80
2022/11/22 06:06:18;;;;;;;14.85;2.20;;;;;;;;;;5045536;28;20046;-79
2022/11/22 06:08:50;;;;;;;17.92;2.35;;;;;;;;;;5046532;28;20880;-79
2022/11/22 06:11:17;;;;;;;27.63;2.72;;;;;;;;;;5045924;28;20049;-80
2022/11/22 06:13:45;;;;;;;18.80;2.63;;;;;;;;;;5043907;28;20162;-80
2022/11/22 06:16:15;;;;;;;19.17;2.40;;;;;;;;;;5047773;28;20045;-80
2022/11/22 06:18:43;;;;;;;13.90;2.17;;;;;;;;;;5050128;28;20051;-80
2022/11/22 06:21:11;;;;;;;15.43;2.28;;;;;;;;;;5051611;28;20351;-79
2022/11/22 06:23:42;;;;;;;22.63;2.30;;;;;;;;;;5042651;28;20049;-79
2022/11/22 06:26:10;;;;;;;22.33;2.47;;;;;;;;;;5050003;28;20053;-79
2022/11/22 06:28:41;;;;;;;15.90;2.10;;;;;;;;;;5056070;28;20053;-79
2022/11/22 06:31:13;;;;;;;17.67;2.45;;;;;;;;;;5047388;28;20052;-79
2022/11/22 06:33:42;;;;;;;18.13;1.98;;;;;;;;;;5047967;28;20053;-80
2022/11/22 06:36:12;;;;;;;13.43;2.25;;;;;;;;;;5049497;28;20415;-80
2022/11/22 06:38:39;;;;;;;10.38;2.13;;;;;;;;;;5050839;28;20132;-79
2022/11/22 06:41:11;;;;;;;12.05;2.05;;;;;;;;;;5046514;28;20080;-80
2022/11/22 06:43:39;;;;;;;17.67;2.38;;;;;;;;;;5064079;28;20050;-80
2022/11/22 06:46:15;;;;;;;15.73;3.05;;;;;;;;;;5043630;28;20423;-80
2022/11/22 06:48:42;;;;;;;14.30;2.28;;;;;;;;;;5053414;28;20046;-79
2022/11/22 06:51:11;;;;;;;24.02;2.67;;;;;;;;;;5065886;28;20097;-80
2022/11/22 06:53:38;;;;;;;20.17;2.58;;;;;;;;;;5062457;28;20046;-80
2022/11/22 06:56:15;;;;;;;10.20;2.13;;;;;;;;;;5057255;28;20132;-79
2022/11/22 06:58:42;;;;;;;15.77;2.55;;;;;;;;;;5049655;28;20056;-80
2022/11/22 07:01:11;;;;;;;16.70;2.58;;;;;;;;;;5051898;28;20049;-79
2022/11/22 07:03:42;;;;;;;22.33;3.00;;;;;;;;;;5050254;28;20045;-79
2022/11/22 07:06:13;;;;;;;17.52;2.28;;;;;;;;;;5048653;28;20061;-79
2022/11/22 07:08:40;;;;;;;18.73;2.30;;;;;;;;;;5050107;28;20055;-79
2022/11/22 07:11:09;;;;;;;19.20;2.70;;;;;;;;;;5049820;28;20603;-79
2022/11/22 07:13:36;;;;;;;15.70;2.60;;;;;;;;;;5054171;28;20077;-80
2022/11/22 07:16:05;;;;;;;9.75;2.58;;;;;;;;;;5051922;28;20103;-79
2022/11/22 07:18:32;;;;;;;23.83;3.03;;;;;;;;;;5049865;28;20049;-79
2022/11/22 07:21:01;;;;;;;9.75;2.50;;;;;;;;;;5055582;28;20646;-79
2022/11/22 07:23:32;;;;;;;9.85;2.60;;;;;;;;;;5050465;28;20104;-80
2022/11/22 07:26:00;;;;;;;15.52;2.70;;;;;;;;;;5041774;28;20148;-79
2022/11/22 07:28:27;;;;;;;10.63;3.05;;;;;;;;;;5048443;28;20061;-79
2022/11/22 07:30:59;;;;;;;15.90;2.95;;;;;;;;;;5063553;28;20085;-79
2022/11/22 07:33:26;;;;;;;14.13;2.65;;;;;;;;;;5061760;28;20049;-80
2022/11/22 07:35:53;;;;;;;14.88;2.78;;;;;;;;;;5051102;28;20657;-79
2022/11/22 07:38:20;;;;;;;19.20;2.45;;;;;;;;;;5051125;28;20049;-80
2022/11/22 07:40:48;;;;;;;11.52;2.72;;;;;;;;;;5045817;28;20050;-80
2022/11/22 07:43:21;;;;;;;15.05;2.70;;;;;;;;;;5045431;28;20092;-80
2022/11/22 07:45:51;;;;;;;14.85;2.88;;;;;;;;;;5058014;28;20050;-80
2022/11/22 07:48:18;;;;;;;24.63;3.20;;;;;;;;;;5047705;28;20061;-80
2022/11/22 07:50:48;;;;;;;12.20;2.92;;;;;;;;;;5046288;28;20074;-80
2022/11/22 07:53:15;;;;;;;10.60;2.55;;;;;;;;;;5050015;28;20484;-80
2022/11/22 07:55:42;;;;;;;19.90;3.13;;;;;;;;;;5045538;28;20188;-80
2022/11/22 07:58:12;;;;;;;14.77;2.85;;;;;;;;;;5048800;28;20049;-80
2022/11/22 08:00:39;;;;;;;12.20;2.53;;;;;;;;;;5042006;28;20076;-80
2022/11/22 08:03:07;;;;;;;15.80;3.08;;;;;;;;;;5043318;28;20840;-79
2022/11/22 08:05:34;;;;;;;15.00;3.20;;;;;;;;;;5048271;28;20041;-80
2022/11/22 08:08:01;;;;;;;20.50;4.18;;;;;;;;;;5048086;28;20051;-80
2022/11/22 08:10:28;;;;;;;15.20;3.47;;;;;;;;;;5046006;28;20070;-79
2022/11/22 08:12:58;;;;;;;14.35;3.50;;;;;;;;;;5042590;28;20157;-79
2022/11/22 08:15:28;;;;;;;13.23;3.75;;;;;;;;;;5044410;28;20056;-79
2022/11/22 08:17:58;;;;;;;13.95;3.28;;;;;;;;;;5044012;28;20060;-80
2022/11/22 08:20:25;;;;;;;15.15;2.72;;;;;;;;;;5048962;28;20034;-80
2022/11/22 08:22:52;;;;;;;17.90;3.22;;;;;;;;;;5044040;28;20139;-79
2022/11/22 08:25:24;;;;;;;19.40;3.22;;;;;;;;;;5041375;28;20054;-80
2022/11/22 08:27:53;;;;;;;15.55;3.35;;;;;;;;;;5043802;28;20049;-79
2022/11/22 08:30:23;;;;;;;16.60;3.78;;;;;;;;;;5046483;28;20177;-79
2022/11/22 08:32:50;;;;;;;12.65;2.70;;;;;;;;;;5038742;28;20061;-80
2022/11/22 08:35:17;;;;;;;9.63;3.08;;;;;;;;;;5043123;28;20056;-80
2022/11/22 08:37:44;;;;;;;15.23;3.63;;;;;;;;;;5043613;28;20048;-80
2022/11/22 08:40:19;;;;;;;18.60;3.70;;;;;;;;;;5044246;28;20046;-79
2022/11/22 08:42:46;;;;;;;15.32;3.40;;;;;;;;;;5043048;28;20054;-79
2022/11/22 08:45:13;;;;;;;22.02;3.90;;;;;;;;;;5063907;28;20770;-79
2022/11/22 08:47:40;;;;;;;16.88;3.03;;;;;;;;;;5048159;28;20049;-79
2022/11/22 08:50:08;;;;;;;9.45;2.78;;;;;;;;;;5043434;28;20668;-80
2022/11/22 08:52:42;;;;;;;12.73;3.17;;;;;;;;;;5056683;28;20053;-79
2022/11/22 08:55:12;;;;;;;12.35;2.95;;;;;;;;;;5046126;28;20068;-79
2022/11/22 08:57:42;;;;;;;11.60;2.75;;;;;;;;;;5038436;28;20042;-79
2022/11/22 09:00:15;;;;;;;7.30;2.63;;;;;;;;;;5045836;28;20057;-79
2022/11/22 09:02:42;;;;;;;;;;;;;;;;;;5041343;28;20144;-79
2022/11/22 09:05:09;;;;;;;11.50;2.70;;;;;;;;;;5043945;28;44575;-79
2022/11/22 09:07:39;;;;;;;12.98;2.90;;;;;;;;;;5046722;28;20077;-78
2022/11/22 09:10:26;;;;;;;7.80;2.53;;;;;;;;;;5040185;28;20061;-79
2022/11/22 09:12:54;;;;;;;12.77;3.17;;;;;;;;;;5048459;28;20065;-79
2022/11/22 09:15:21;;;;;;;12.35;3.33;;;;;;;;;;5044033;28;20491;-79
2022/11/22 09:17:51;;;;;;;13.20;2.42;;;;;;;;;;5040829;28;20056;-79
2022/11/22 09:20:18;;;;;;;16.75;3.10;;;;;;;;;;5046979;28;20060;-79
2022/11/22 09:22:49;;;;;;;13.90;2.80;;;;;;;;;;5043009;28;20053;-79
2022/11/22 09:25:16;;;;;;;9.27;2.60;;;;;;;;;;5042295;28;20049;-80
2022/11/22 09:27:43;;;;;;;11.00;2.40;;;;;;;;;;5044798;28;20628;-80
2022/11/22 09:30:10;;;;;;;10.90;2.97;;;;;;;;;;5046973;28;20050;-79
2022/11/22 09:32:44;;;;;;;10.45;3.00;;;;;;;;;;5043290;28;20099;-79
2022/11/22 09:35:11;;;;;;;9.93;2.58;;;;;;;;;;5045485;28;20163;-79
2022/11/22 09:37:38;;;;;;;13.13;2.53;;;;;;;;;;5043687;28;20132;-79
2022/11/22 09:40:15;;;;;;;12.30;2.75;;;;;;;;;;5041666;28;20053;-79
2022/11/22 09:43:01;;;;;;;7.50;1.60;;;;;;;;;;5039288;28;20054;-79
2022/11/22 09:45:39;;;;;;;11.07;2.70;;;;;;;;;;5045221;28;20136;-79
2022/11/22 09:48:06;;;;;;;7.38;2.35;;;;;;;;;;5039284;28;20471;-79
2022/11/22 09:50:48;;;;;;;6.82;2.10;;;;;;;;;;5042105;28;20077;-79
2022/11/22 09:53:15;;;;;;;11.30;2.72;;;;;;;;;;5044236;28;20048;-78
2022/11/22 09:55:52;;;;;;;11.18;2.50;;;;;;;;;;5045698;28;20077;-79
2022/11/22 09:58:32;;;;;;;11.07;2.40;;;;;;;;;;5043428;28;20070;-79
2022/11/22 10:01:23;;;;;;;13.82;2.78;;;;;;;;;;5040292;28;20054;-79
2022/11/22 10:04:05;;;;;;;8.68;2.17;;;;;;;;;;5036885;28;20050;-79
2022/11/22 10:06:37;;;;;;;8.25;2.42;;;;;;;;;;5040838;28;20065;-79
2022/11/22 10:09:06;;;;;;;11.63;2.83;;;;;;;;;;5034243;28;20526;-80
2022/11/22 10:11:42;;;;;;;12.95;2.75;;;;;;;;;;5040148;28;20146;-79
2022/11/22 10:14:28;;;;;;;11.27;2.67;;;;;;;;;;5044585;28;20499;-79
2022/11/22 10:17:01;;;;;;;11.95;2.60;;;;;;;;;;5043990;28;20558;-79
2022/11/22 10:19:37;;;;;;;16.52;2.42;;;;;;;;;;5038206;28;20059;-79
2022/11/22 10:22:12;;;;;;;11.93;2.80;;;;;;;;;;5041010;28;20486;-79
2022/11/22 10:24:42;;;;;;;12.45;2.92;;;;;;;;;;5036924;28;20105;-78
2022/11/22 10:27:15;;;;;;;14.05;2.70;;;;;;;;;;5059408;28;20061;-79
2022/11/22 10:29:45;;;;;;;9.70;2.58;;;;;;;;;;5037963;28;20487;-79
2022/11/22 10:32:20;;;;;;;10.40;2.95;;;;;;;;;;5045881;28;20052;-79
2022/11/22 10:34:50;;;;;;;6.53;2.25;;;;;;;;;;5042354;28;20768;-79
2022/11/22 10:37:23;;;;;;;9.00;2.28;;;;;;;;;;5037915;28;20787;-79
2022/11/22 10:40:09;;;;;;;10.02;2.47;;;;;;;;;;5044878;28;20056;-79
2022/11/22 10:42:45;;;;;;;8.73;2.50;;;;;;;;;;5040451;28;20045;-79
2022/11/22 10:45:16;;;;;;;11.93;2.70;;;;;;;;;;5045900;28;20059;-79
2022/11/22 10:47:49;;;;;;;11.43;2.33;;;;;;;;;;5041080;28;20519;-79
2022/11/22 10:50:16;;;;;;;11.18;2.28;;;;;;;;;;5043871;28;20054;-79
2022/11/22 10:53:04;;;;;;;14.98;3.38;;;;;;;;;;5061338;28;20046;-79
2022/11/22 10:55:52;;;;;;;9.95;2.67;;;;;;;;;;5040016;28;20141;-79
2022/11/22 10:58:37;;;;;;;10.73;2.80;;;;;;;;;;5046194;28;20753;-79
2022/11/22 11:01:19;;;;;;;8.07;2.67;;;;;;;;;;5041778;28;20566;-79
2022/11/22 11:03:48;;;;;;;8.43;2.17;;;;;;;;;;5048638;28;20058;-79
2022/11/22 11:06:22;;;;;;;10.18;2.92;;;;;;;;;;5047015;28;20056;-79
2022/11/22 11:09:12;;;;;;;13.73;2.25;;;;;;;;;;5041738;28;20041;-79
2022/11/22 11:12:00;;;;;;;4.93;1.92;;;;;;;;;;5048333;28;21799;-78
2022/11/22 11:14:34;;;;;;;10.77;2.40;;;;;;;;;;5051405;28;20787;-79
2022/11/22 11:17:01;;;;;;;8.77;2.10;;;;;;;;;;5043862;28;20060;-79
2022/11/22 11:19:30;;;;;;;5.50;1.70;;;;;;;;;;5045200;28;20470;-79
2022/11/22 11:22:15;;;;;;;5.78;1.80;;;;;;;;;;5044408;28;20045;-79
2022/11/22 11:25:17;;;;;;;8.45;1.95;;;;;;;;;;5048606;28;20056;-79
2022/11/22 11:27:44;;;;;;;5.57;2.15;;;;;;;;;;5047309;28;20057;-79
2022/11/22 11:30:11;;;;;;;8.55;1.75;;;;;;;;;;5048750;28;20057;-79
2022/11/22 11:32:50;;;;;;;6.13;1.70;;;;;;;;;;5041542;28;20144;-79
2022/11/22 11:35:19;;;;;;;7.60;1.60;;;;;;;;;;5040446;28;20807;-79
2022/11/22 11:37:46;;;;;;;6.05;1.88;;;;;;;;;;5040846;28;20116;-79
2022/11/22 11:40:30;;;;;;;10.88;2.08;;;;;;;;;;5044865;28;20048;-79
2022/11/22 11:43:17;;;;;;;7.13;1.80;;;;;;;;;;5043209;28;20050;-78
2022/11/22 11:45:44;;;;;;;4.20;1.77;;;;;;;;;;5046326;28;20053;-79
2022/11/22 11:48:27;;;;;;;4.70;1.42;;;;;;;;;;5043026;28;20045;-79
2022/11/22 11:51:26;;;;;;;4.07;1.90;;;;;;;;;;5042338;28;20077;-78
2022/11/22 11:54:01;;;;;;;5.28;1.75;;;;;;;;;;4986796;28;20939;-78
2022/11/22 11:56:28;;;;;;;4.63;1.50;;;;;;;;;;5044277;28;20495;-79
2022/11/22 11:58:57;;;;;;;5.43;1.60;;;;;;;;;;5041549;28;20133;-78
2022/11/22 12:01:25;;;;;;;5.45;1.70;;;;;;;;;;5046204;28;20060;-79
2022/11/22 12:03:58;;;;;;;6.70;1.63;;;;;;;;;;5044955;28;20931;-78
2022/11/22 12:06:31;;;;;;;4.90;1.85;;;;;;;;;;5043839;28;20042;-79
2022/11/22 12:08:59;;;;;;;4.75;1.45;;;;;;;;;;5045685;28;20049;-79
2022/11/22 12:11:41;;;;;;;4.72;2.00;;;;;;;;;;5039213;28;20056;-78
2022/11/22 12:14:11;;;;;;;5.45;1.92;;;;;;;;;;5043724;28;20053;-78
2022/11/22 12:16:50;;;;;;;8.43;1.52;;;;;;;;;;5039705;28;20065;-78
2022/11/22 12:19:24;;;;;;;5.30;1.65;;;;;;;;;;5041626;28;20064;-78
2022/11/22 12:22:18;;;;;;;2.60;1.30;;;;;;;;;;5038860;28;20136;-78
2022/11/22 12:25:18;;;;;;;4.95;1.40;;;;;;;;;;5040887;28;20054;-79
2022/11/22 12:28:09;;;;;;;5.13;1.70;;;;;;;;;;5045221;28;20467;-78
2022/11/22 12:30:37;;;;;;;2.33;1.55;;;;;;;;;;5046057;28;20162;-79
2022/11/22 12:33:07;;;;;;;7.88;1.98;;;;;;;;;;5055036;28;20046;-78
2022/11/22 12:35:42;;;;;;;3.08;1.30;;;;;;;;;;5041187;28;20061;-78
2022/11/22 12:38:16;;;;;;;5.03;1.83;;;;;;;;;;5039968;28;20129;-78
2022/11/22 12:40:46;;;;;;;4.10;1.50;;;;;;;;;;5040065;28;20053;-78
2022/11/22 12:43:40;;;;;;;3.50;1.50;;;;;;;;;;5042245;28;20045;-79
2022/11/22 12:46:13;;;;;;;3.58;1.15;;;;;;;;;;5028384;28;20116;-79
2022/11/22 12:48:40;;;;;;;3.60;1.88;;;;;;;;;;5041037;28;20085;-78
2022/11/22 12:51:17;;;;;;;5.30;1.55;;;;;;;;;;5047917;28;20052;-78
2022/11/22 12:53:45;;;;;;;3.30;1.30;;;;;;;;;;5045764;28;20152;-78
2022/11/22 12:56:22;;;;;;;3.15;1.40;;;;;;;;;;5040409;28;21027;-78
2022/11/22 12:58:58;;;;;;;3.17;1.08;;;;;;;;;;5042232;28;20049;-78
2022/11/22 13:01:32;;;;;;;4.07;1.30;;;;;;;;;;5043286;28;20058;-78
2022/11/22 13:04:19;;;;;;;2.97;1.58;;;;;;;;;;5047722;28;20112;-78
2022/11/22 13:06:52;;;;;;;3.47;1.50;;;;;;;;;;5037525;28;20051;-78
2022/11/22 13:09:32;;;;;;;5.63;1.50;;;;;;;;;;5041086;28;20049;-78
2022/11/22 13:12:02;;;;;;;2.30;1.10;;;;;;;;;;5041419;28;20057;-78
2022/11/22 13:14:40;;;;;;;3.63;1.48;;;;;;;;;;5045275;28;20109;-78
2022/11/22 13:17:11;;;;;;;3.42;1.23;;;;;;;;;;5044661;28;20151;-79
2022/11/22 13:19:44;;;;;;;4.72;1.40;;;;;;;;;;5041092;28;20080;-78
2022/11/22 13:22:19;;;;;;;3.08;1.27;;;;;;;;;;5043388;28;20066;-78
2022/11/22 13:24:52;;;;;;;2.47;1.17;;;;;;;;;;5043036;28;20645;-78
2022/11/22 13:27:19;;;;;;;3.40;1.30;;;;;;;;;;5040237;28;20081;-77
2022/11/22 13:29:47;;;;;;;2.97;1.20;;;;;;;;;;5041732;28;20153;-78
2022/11/22 13:32:16;;;;;;;3.47;1.20;;;;;;;;;;5041301;28;20132;-78
2022/11/22 13:35:06;;;;;;;2.58;1.48;;;;;;;;;;5049418;28;20053;-78
2022/11/22 13:37:39;;;;;;;3.08;1.80;;;;;;;;;;5044614;28;20057;-78
2022/11/22 13:40:15;;;;;;;3.38;1.10;;;;;;;;;;5045219;28;20135;-78
2022/11/22 13:42:42;;;;;;;2.67;1.00;;;;;;;;;;5040939;28;20053;-78
2022/11/22 13:45:23;;;;;;;1.50;1.10;;;;;;;;;;5041537;28;20072;-78
2022/11/22 13:47:51;;;;;;;4.25;1.45;;;;;;;;;;5042022;28;20196;-78
2022/11/22 13:50:36;;;;;;;3.35;1.00;;;;;;;;;;5043879;28;20049;-78
2022/11/22 13:53:18;;;;;;;3.00;1.08;;;;;;;;;;5048956;28;20073;-78
2022/11/22 13:55:45;;;;;;;3.10;1.02;;;;;;;;;;5042525;28;20069;-78
2022/11/22 13:58:25;;;;;;;1.05;0.85;;;;;;;;;;5044318;28;20616;-78
2022/11/22 14:00:53;;;;;;;2.15;1.08;;;;;;;;;;5043930;28;20044;-78
2022/11/22 14:03:41;;;;;;;2.95;1.08;;;;;;;;;;5040586;28;20146;-78
2022/11/22 14:06:15;;;;;;;1.73;1.10;;;;;;;;;;5041207;28;20194;-77
2022/11/22 14:08:42;;;;;;;2.25;1.20;;;;;;;;;;5037865;28;20646;-77
2022/11/22 14:11:17;;;;;;;1.80;0.95;;;;;;;;;;5035182;28;20050;-78
2022/11/22 14:13:51;;;;;;;5.10;1.20;;;;;;;;;;5040529;28;20049;-77
2022/11/22 14:16:25;;;;;;;1.70;1.00;;;;;;;;;;5038888;28;20049;-77
2022/11/22 14:18:58;;;;;;;5.93;1.00;;;;;;;;;;5038470;28;20050;-78
2022/11/22 14:21:39;;;;;;;0.90;0.63;;;;;;;;;;5041756;28;20053;-77
2022/11/22 14:24:16;;;;;;;0.90;0.90;;;;;;;;;;5038486;28;20149;-77
2022/11/22 14:27:04;;;;;;;1.98;1.17;;;;;;;;;;5039401;28;20109;-77
2022/11/22 14:29:48;;;;;;;8.38;0.90;;;;;;;;;;5041982;28;20061;-77
2022/11/22 14:32:24;;;;;;;1.73;1.02;;;;;;;;;;5041201;28;20113;-77
2022/11/22 14:35:15;;;;;;;2.67;1.00;;;;;;;;;;5051491;28;20057;-77
2022/11/22 14:37:45;;;;;;;1.58;0.95;;;;;;;;;;5040586;28;21297;-77
2022/11/22 14:40:13;;;;;;;2.88;1.48;;;;;;;;;;5037319;28;20057;-77
2022/11/22 14:42:42;;;;;;;2.97;1.00;;;;;;;;;;5035558;28;20518;-78
2022/11/22 14:45:12;;;;;;;3.85;1.55;;;;;;;;;;5035838;28;20061;-77
2022/11/22 14:47:47;;;;;;;3.60;1.00;;;;;;;;;;5049634;28;20049;-77
2022/11/22 14:50:17;;;;;;;1.10;1.00;;;;;;;;;;5041915;28;20046;-77
2022/11/22 14:52:46;;;;;;;1.77;0.90;;;;;;;;;;5045212;28;20132;-78
2022/11/22 14:55:18;;;;;;;1.08;0.90;;;;;;;;;;5040279;28;20041;-78
2022/11/22 14:57:46;;;;;;;2.72;1.23;;;;;;;;;;5038512;28;20061;-78
2022/11/22 15:00:21;;;;;;;1.30;1.00;;;;;;;;;;5048625;28;20134;-78
2022/11/22 15:02:51;;;;;;;0.80;0.80;;;;;;;;;;5044323;28;20057;-78
2022/11/22 15:05:18;;;;;;;2.03;0.85;;;;;;;;;;5047238;28;20108;-79
2022/11/22 15:08:05;;;;;;;3.78;1.30;;;;;;;;;;5051772;28;20543;-78
2022/11/22 15:11:11;;;;;;;2.63;1.30;;;;;;;;;;5037293;28;20061;-78